createdAt,value
2022-11-05T00:01:51.227Z,16.57
2022-11-05T00:04:47.803Z,17.65
2022-11-05T00:07:36.765Z,15.75
2022-11-05T00:10:06.823Z,14.57
2022-11-05T00:12:52.871Z,14.25
2022-11-05T00:15:40.116Z,14.87
2022-11-05T00:18:07.395Z,13.73
2022-11-05T00:20:34.691Z,16.13
2022-11-05T00:23:21.268Z,14.13
2022-11-05T00:25:56.084Z,12.30
2022-11-05T00:28:23.605Z,13.23
2022-11-05T00:30:52.817Z,12.68
2022-11-05T00:33:20.382Z,14.25
2022-11-05T00:35:47.654Z,13.27
2022-11-05T00:38:14.919Z,11.43
2022-11-05T00:40:42.287Z,9.90
2022-11-05T00:43:28.115Z,10.63
2022-11-05T00:45:56.900Z,10.68
2022-11-05T00:48:42.844Z,11.43
2022-11-05T00:51:10.100Z,10.18
2022-11-05T00:53:37.360Z,9.80
2022-11-05T00:56:05.076Z,10.65
2022-11-05T00:58:32.418Z,9.82
2022-11-05T01:01:02.076Z,12.25
2022-11-05T01:03:31.694Z,12.15
2022-11-05T01:06:06.159Z,11.27
2022-11-05T01:08:33.445Z,11.75
2022-11-05T01:11:00.758Z,9.18
2022-11-05T01:13:29.834Z,14.73
2022-11-05T01:15:57.438Z,11.30
2022-11-05T01:18:26.123Z,9.40
2022-11-05T01:20:53.461Z,11.65
2022-11-05T01:23:21.257Z,12.98
2022-11-05T01:25:48.788Z,12.05
2022-11-05T01:28:16.063Z,10.57
2022-11-05T01:30:43.336Z,12.30
2022-11-05T01:33:11.024Z,12.55
2022-11-05T01:35:40.693Z,9.88
2022-11-05T01:38:07.937Z,11.60
2022-11-05T01:40:35.265Z,11.10
2022-11-05T01:43:02.507Z,11.27
2022-11-05T01:45:29.762Z,13.38
2022-11-05T01:48:08.443Z,10.65
2022-11-05T01:50:49.541Z,10.75
2022-11-05T01:53:23.717Z,10.07
2022-11-05T01:56:00.407Z,14.00
2022-11-05T01:58:31.567Z,11.70
2022-11-05T02:00:59.143Z,10.93
2022-11-05T02:03:26.968Z,11.25
2022-11-05T02:05:57.166Z,11.98
2022-11-05T02:08:36.652Z,14.70
2022-11-05T02:11:04.318Z,12.98
2022-11-05T02:13:31.685Z,13.50
2022-11-05T02:16:05.863Z,11.23
2022-11-05T02:18:46.787Z,11.98
2022-11-05T02:21:51.125Z,11.50
2022-11-05T02:24:37.124Z,10.85
2022-11-05T02:27:16.155Z,10.32
2022-11-05T02:30:09.494Z,10.55
2022-11-05T02:33:07.457Z,9.45
2022-11-05T02:35:52.656Z,11.87
2022-11-05T02:38:27.730Z,12.57
2022-11-05T02:41:05.021Z,14.15
2022-11-05T02:43:44.988Z,11.18
2022-11-05T02:46:22.583Z,10.93
2022-11-05T02:48:58.055Z,14.07
2022-11-05T02:51:33.581Z,11.20
2022-11-05T02:54:09.343Z,14.10
2022-11-05T02:56:40.032Z,13.13
2022-11-05T02:59:07.319Z,13.73
2022-11-05T03:01:35.571Z,10.70
2022-11-05T03:04:08.122Z,13.90
2022-11-05T03:07:03.825Z,11.10
2022-11-05T03:10:01.624Z,11.68
2022-11-05T03:12:38.644Z,11.88
2022-11-05T03:15:16.911Z,13.57
2022-11-05T03:17:53.014Z,12.05
2022-11-05T03:20:25.408Z,12.85
2022-11-05T03:23:07.922Z,11.35
2022-11-05T03:25:42.319Z,13.02
2022-11-05T03:28:11.419Z,12.93
2022-11-05T03:30:41.182Z,13.38
2022-11-05T03:33:14.955Z,12.98
2022-11-05T03:35:46.509Z,13.30
2022-11-05T03:38:19.745Z,14.15
2022-11-05T03:40:49.498Z,14.87
2022-11-05T03:43:19.315Z,14.38
2022-11-05T03:45:52.196Z,13.20
2022-11-05T03:48:21.962Z,13.25
2022-11-05T03:50:55.643Z,13.30
2022-11-05T03:53:28.000Z,15.13
2022-11-05T03:56:01.249Z,13.15
2022-11-05T03:58:29.852Z,14.32
2022-11-05T04:00:59.665Z,11.70
2022-11-05T04:03:26.893Z,10.35
2022-11-05T04:06:15.358Z,14.07
2022-11-05T04:09:01.267Z,13.10
2022-11-05T04:11:47.090Z,10.65
2022-11-05T04:14:14.387Z,12.38
2022-11-05T04:17:00.097Z,13.32
2022-11-05T04:19:46.132Z,11.37
2022-11-05T04:22:33.368Z,11.98
2022-11-05T04:25:00.681Z,11.70
2022-11-05T04:27:27.922Z,14.75
2022-11-05T04:30:13.912Z,13.48
2022-11-05T04:32:41.196Z,13.50
2022-11-05T04:35:08.497Z,10.10
2022-11-05T04:37:37.070Z,14.55
2022-11-05T04:40:05.014Z,10.25
2022-11-05T04:42:32.256Z,12.25
2022-11-05T04:44:59.537Z,9.57
2022-11-05T04:47:26.775Z,12.80
2022-11-05T04:49:54.011Z,9.88
2022-11-05T04:52:21.328Z,13.77
2022-11-05T04:54:49.942Z,12.07
2022-11-05T04:57:17.190Z,11.70
2022-11-05T04:59:44.432Z,11.95
2022-11-05T05:02:11.732Z,11.43
2022-11-05T05:04:38.996Z,9.18
2022-11-05T05:07:06.244Z,13.35
2022-11-05T05:09:33.497Z,9.57
2022-11-05T05:12:02.575Z,9.35
2022-11-05T05:14:29.799Z,10.93
2022-11-05T05:16:57.067Z,10.55
2022-11-05T05:19:24.759Z,10.18
2022-11-05T05:21:52.016Z,11.03
2022-11-05T05:24:21.310Z,8.77
2022-11-05T05:26:50.210Z,12.45
2022-11-05T05:29:18.793Z,9.82
2022-11-05T05:31:46.038Z,8.02
2022-11-05T05:34:14.462Z,10.93
2022-11-05T05:36:41.935Z,10.82
2022-11-05T05:39:11.055Z,11.63
2022-11-05T05:41:38.535Z,9.73
2022-11-05T05:44:06.328Z,9.80
2022-11-05T05:46:34.912Z,8.77
2022-11-05T05:49:04.462Z,12.40
2022-11-05T05:51:33.874Z,12.98
2022-11-05T05:54:01.135Z,12.65
2022-11-05T05:56:28.412Z,10.65
2022-11-05T05:58:55.655Z,11.40
2022-11-05T06:01:23.288Z,11.63
2022-11-05T06:03:51.958Z,8.68
2022-11-05T06:06:22.695Z,11.73
2022-11-05T06:08:50.008Z,12.18
2022-11-05T06:11:17.285Z,11.83
2022-11-05T06:13:44.656Z,11.93
2022-11-05T06:16:12.286Z,10.27
2022-11-05T06:18:39.535Z,10.15
2022-11-05T06:21:10.164Z,9.80
2022-11-05T06:23:39.610Z,10.60
2022-11-05T06:26:08.830Z,13.27
2022-11-05T06:28:36.470Z,9.27
2022-11-05T06:31:04.808Z,12.13
2022-11-05T06:33:32.288Z,13.30
2022-11-05T06:36:00.656Z,11.23
2022-11-05T06:38:32.698Z,10.32
2022-11-05T06:41:03.338Z,11.32
2022-11-05T06:43:33.248Z,11.98
2022-11-05T06:46:02.181Z,9.27
2022-11-05T06:48:29.923Z,11.33
2022-11-05T06:50:57.288Z,9.45
2022-11-05T06:53:24.691Z,10.10
2022-11-05T06:55:53.291Z,9.60
2022-11-05T06:58:20.618Z,8.27
2022-11-05T07:00:48.011Z,9.47
2022-11-05T07:03:15.736Z,11.50
2022-11-05T07:05:46.838Z,8.13
2022-11-05T07:08:14.441Z,10.00
2022-11-05T07:10:41.755Z,9.30
2022-11-05T07:13:10.884Z,11.70
2022-11-05T07:15:38.888Z,11.32
2022-11-05T07:18:07.577Z,9.20
2022-11-05T07:20:35.520Z,10.30
2022-11-05T07:23:04.085Z,11.32
2022-11-05T07:25:32.680Z,10.10
2022-11-05T07:28:00.408Z,12.52
2022-11-05T07:30:29.796Z,10.68
2022-11-05T07:32:57.193Z,15.23
2022-11-05T07:35:24.760Z,10.48
2022-11-05T07:37:56.437Z,9.13
2022-11-05T07:40:25.927Z,10.38
2022-11-05T07:42:54.694Z,14.10
2022-11-05T07:45:22.937Z,13.43
2022-11-05T07:47:53.269Z,12.25
2022-11-05T07:50:22.537Z,12.37
2022-11-05T07:52:50.227Z,10.40
2022-11-05T07:55:18.460Z,14.68
2022-11-05T07:57:47.290Z,14.13
2022-11-05T08:00:16.618Z,9.77
2022-11-05T08:02:44.234Z,11.63
2022-11-05T08:05:12.935Z,10.05
2022-11-05T08:07:40.238Z,11.73
2022-11-05T08:10:08.397Z,11.85
2022-11-05T08:12:35.633Z,12.48
2022-11-05T08:15:03.115Z,12.93
2022-11-05T08:17:30.464Z,11.02
2022-11-05T08:19:57.743Z,12.02
2022-11-05T08:22:26.400Z,9.32
2022-11-05T08:24:53.780Z,11.20
2022-11-05T08:27:21.110Z,10.57
2022-11-05T08:29:49.008Z,11.90
2022-11-05T08:32:16.726Z,9.30
2022-11-05T08:34:43.996Z,9.90
2022-11-05T08:37:11.621Z,10.98
2022-11-05T08:39:40.330Z,11.43
2022-11-05T08:42:07.600Z,11.30
2022-11-05T08:44:34.842Z,9.98
2022-11-05T08:47:02.112Z,12.68
2022-11-05T08:49:29.338Z,13.23
2022-11-05T08:51:56.580Z,12.33
2022-11-05T08:54:23.823Z,12.38
2022-11-05T08:56:52.466Z,12.95
2022-11-05T08:59:19.792Z,13.65
2022-11-05T09:01:47.219Z,11.32
2022-11-05T09:04:14.648Z,10.23
2022-11-05T09:06:42.016Z,11.52
2022-11-05T09:09:09.303Z,10.52
2022-11-05T09:12:05.234Z,10.93
2022-11-05T09:14:27.036Z,11.32
2022-11-05T09:16:54.347Z,13.80
2022-11-05T09:19:21.734Z,10.50
2022-11-05T09:21:49.042Z,11.15
2022-11-05T09:24:16.295Z,10.30
2022-11-05T09:26:43.547Z,9.25
2022-11-05T09:29:14.368Z,8.67
2022-11-05T09:31:43.568Z,10.00
2022-11-05T09:34:12.614Z,10.23
2022-11-05T09:36:39.954Z,9.10
2022-11-05T09:39:07.580Z,9.15
2022-11-05T09:41:37.188Z,9.73
2022-11-05T09:44:15.513Z,10.88
2022-11-05T09:46:51.040Z,10.10
2022-11-05T09:49:25.687Z,12.38
2022-11-05T09:51:55.297Z,9.55
2022-11-05T09:54:26.354Z,9.50
2022-11-05T09:56:55.456Z,11.05
2022-11-05T09:59:27.523Z,8.98
2022-11-05T10:02:03.400Z,11.02
2022-11-05T10:04:34.256Z,10.15
2022-11-05T10:07:03.825Z,9.37
2022-11-05T10:09:36.880Z,11.75
2022-11-05T10:12:10.843Z,9.35
2022-11-05T10:14:41.703Z,9.45
2022-11-05T10:17:13.395Z,8.98
2022-11-05T10:19:46.387Z,8.93
2022-11-05T10:22:18.215Z,8.98
2022-11-05T10:24:47.751Z,10.70
2022-11-05T10:27:18.145Z,7.68
2022-11-05T10:29:46.805Z,8.23
2022-11-05T10:32:23.621Z,7.97
2022-11-05T10:34:51.907Z,7.15
2022-11-05T10:37:20.974Z,6.82
2022-11-05T10:39:49.364Z,7.78
2022-11-05T10:42:43.832Z,7.03
2022-11-05T10:45:21.694Z,6.80
2022-11-05T10:47:59.783Z,8.27
2022-11-05T10:50:29.561Z,12.45
2022-11-05T10:52:59.804Z,7.80
2022-11-05T10:55:29.667Z,7.57
2022-11-05T10:58:08.794Z,7.23
2022-11-05T11:00:36.946Z,4.82
2022-11-05T11:03:32.018Z,5.97
2022-11-05T11:06:01.127Z,7.68
2022-11-05T11:08:29.514Z,6.55
2022-11-05T11:10:59.413Z,8.23
2022-11-05T11:13:29.061Z,4.22
2022-11-05T11:16:14.594Z,6.82
2022-11-05T11:18:44.103Z,6.85
2022-11-05T11:21:14.518Z,6.80
2022-11-05T11:23:43.864Z,7.27
2022-11-05T11:26:12.929Z,7.30
2022-11-05T11:28:45.578Z,6.63
2022-11-05T11:31:14.924Z,8.20
2022-11-05T11:33:46.653Z,6.63
2022-11-05T11:36:16.733Z,8.87
2022-11-05T11:38:44.539Z,6.60
2022-11-05T11:41:24.671Z,7.85
2022-11-05T11:43:56.116Z,8.32
2022-11-05T11:46:23.489Z,5.85
2022-11-05T11:48:52.104Z,7.50
2022-11-05T11:51:30.216Z,6.63
2022-11-05T11:53:59.300Z,5.85
2022-11-05T11:56:27.128Z,5.80
2022-11-05T11:58:56.213Z,8.55
2022-11-05T12:01:57.362Z,4.00
2022-11-05T12:04:45.034Z,6.88
2022-11-05T12:07:27.724Z,4.82
2022-11-05T12:10:21.891Z,8.18
2022-11-05T12:13:04.230Z,6.03
2022-11-05T12:15:43.767Z,6.00
2022-11-05T12:18:19.631Z,5.07
2022-11-05T12:21:07.951Z,4.82
2022-11-05T12:23:48.055Z,6.35
2022-11-05T12:26:24.543Z,6.32
2022-11-05T12:29:18.274Z,5.57
2022-11-05T12:31:55.962Z,6.80
2022-11-05T12:34:37.490Z,7.22
2022-11-05T12:37:18.530Z,6.68
2022-11-05T12:40:02.123Z,6.53
2022-11-05T12:42:41.897Z,7.53
2022-11-05T12:45:22.322Z,4.68
2022-11-05T12:48:04.201Z,5.20
2022-11-05T12:50:38.381Z,7.47
2022-11-05T12:53:23.075Z,5.03
2022-11-05T12:55:51.583Z,6.67
2022-11-05T12:58:23.705Z,9.05
2022-11-05T13:00:55.382Z,4.18
2022-11-05T13:03:35.935Z,6.93
2022-11-05T13:06:07.576Z,6.75
2022-11-05T13:08:42.955Z,4.87
2022-11-05T13:11:17.023Z,6.80
2022-11-05T13:13:50.801Z,5.90
2022-11-05T13:16:25.391Z,5.65
2022-11-05T13:18:55.735Z,4.93
2022-11-05T13:21:26.234Z,5.63
2022-11-05T13:24:00.896Z,6.85
2022-11-05T13:26:35.182Z,7.22
2022-11-05T13:29:06.810Z,7.70
2022-11-05T13:31:38.724Z,7.55
2022-11-05T13:34:11.153Z,6.50
2022-11-05T13:37:06.800Z,6.93
2022-11-05T13:39:41.295Z,6.95
2022-11-05T13:42:40.206Z,7.95
2022-11-05T13:45:26.934Z,6.63
2022-11-05T13:48:23.846Z,6.07
2022-11-05T13:51:18.578Z,6.10
2022-11-05T13:54:18.327Z,8.43
2022-11-05T13:57:02.107Z,5.65
2022-11-05T13:59:54.604Z,6.53
2022-11-05T14:02:24.838Z,5.30
2022-11-05T14:05:00.488Z,6.20
2022-11-05T14:07:31.497Z,5.15
2022-11-05T14:10:01.371Z,5.97
2022-11-05T14:12:33.610Z,5.68
2022-11-05T14:15:04.563Z,8.73
2022-11-05T14:17:34.581Z,8.52
2022-11-05T14:20:24.228Z,6.38
2022-11-05T14:22:52.218Z,6.88
2022-11-05T14:25:59.736Z,5.03
2022-11-05T14:28:46.683Z,8.83
2022-11-05T14:32:02.397Z,6.60
2022-11-05T14:34:37.104Z,10.07
2022-11-05T14:37:26.058Z,5.80
2022-11-05T14:39:55.459Z,7.55
2022-11-05T14:42:26.624Z,5.23
2022-11-05T14:45:02.080Z,6.72
2022-11-05T14:47:32.231Z,6.50
2022-11-05T14:50:03.830Z,9.55
2022-11-05T14:52:32.107Z,7.65
2022-11-05T14:54:59.616Z,9.67
2022-11-05T14:58:04.649Z,8.13
2022-11-05T15:00:45.648Z,8.02
2022-11-05T15:03:31.768Z,7.80
2022-11-05T15:06:19.027Z,9.30
2022-11-05T15:08:58.860Z,9.33
2022-11-05T15:11:31.419Z,8.98
2022-11-05T15:14:04.580Z,17.10
2022-11-05T15:16:36.579Z,9.82
2022-11-05T15:19:05.131Z,9.00
2022-11-05T15:21:35.948Z,11.13
2022-11-05T15:24:04.630Z,7.20
2022-11-05T15:26:45.731Z,8.52
2022-11-05T15:29:17.023Z,10.40
2022-11-05T15:31:46.496Z,10.05
2022-11-05T15:34:22.305Z,7.63
2022-11-05T15:36:53.497Z,9.45
2022-11-05T15:39:29.966Z,12.98
2022-11-05T15:41:59.240Z,8.95
2022-11-05T15:44:29.090Z,8.82
2022-11-05T15:47:20.781Z,8.83
2022-11-05T15:49:50.544Z,8.45
2022-11-05T15:52:19.538Z,11.18
2022-11-05T15:55:05.379Z,9.32
2022-11-05T15:57:32.975Z,9.80
2022-11-05T16:00:04.949Z,8.83
2022-11-05T16:02:35.573Z,10.02
2022-11-05T16:05:09.379Z,12.35
2022-11-05T16:07:40.851Z,10.45
2022-11-05T16:10:19.166Z,8.95
2022-11-05T16:12:46.579Z,6.97
2022-11-05T16:15:23.218Z,8.63
2022-11-05T16:17:54.680Z,10.30
2022-11-05T16:20:29.493Z,10.23
2022-11-05T16:23:00.011Z,9.07
2022-11-05T16:25:38.178Z,13.23
2022-11-05T16:28:18.381Z,11.07
2022-11-05T16:30:53.300Z,11.45
2022-11-05T16:33:22.382Z,14.98
2022-11-05T16:35:50.662Z,19.05
2022-11-05T16:38:19.007Z,24.73
2022-11-05T16:40:46.260Z,15.70
2022-11-05T16:43:19.526Z,16.25
2022-11-05T16:45:47.238Z,12.05
2022-11-05T16:48:15.714Z,9.90
2022-11-05T16:50:45.290Z,13.40
2022-11-05T16:53:12.869Z,13.95
2022-11-05T16:55:42.699Z,11.13
2022-11-05T16:58:18.814Z,11.23
2022-11-05T17:00:46.505Z,10.20
2022-11-05T17:03:13.757Z,13.77
2022-11-05T17:05:41.203Z,11.55
2022-11-05T17:08:10.112Z,11.73
2022-11-05T17:10:37.753Z,9.27
2022-11-05T17:13:05.010Z,10.80
2022-11-05T17:15:35.678Z,11.50
2022-11-05T17:18:04.894Z,13.70
2022-11-05T17:20:40.276Z,11.05
2022-11-05T17:23:11.741Z,13.82
2022-11-05T17:25:39.999Z,10.40
2022-11-05T17:28:08.131Z,10.40
2022-11-05T17:30:36.388Z,11.10
2022-11-05T17:33:03.867Z,10.60
2022-11-05T17:35:31.475Z,12.10
2022-11-05T17:37:58.782Z,11.40
2022-11-05T17:40:28.427Z,14.60
2022-11-05T17:42:55.915Z,15.38
2022-11-05T17:45:23.302Z,12.75
2022-11-05T17:47:50.889Z,13.15
2022-11-05T17:50:18.514Z,13.35
2022-11-05T17:52:46.097Z,12.33
2022-11-05T17:55:17.339Z,13.13
2022-11-05T17:57:48.138Z,15.98
2022-11-05T18:00:17.645Z,10.52
2022-11-05T18:02:46.173Z,10.18
2022-11-05T18:05:14.320Z,12.60
2022-11-05T18:07:42.063Z,13.32
2022-11-05T18:10:10.571Z,12.77
2022-11-05T18:12:38.581Z,14.07
2022-11-05T18:15:08.349Z,13.23
2022-11-05T18:17:36.993Z,12.00
2022-11-05T18:20:10.640Z,15.07
2022-11-05T18:22:41.109Z,16.13
2022-11-05T18:25:09.766Z,15.30
2022-11-05T18:27:37.422Z,14.70
2022-11-05T18:30:05.470Z,15.17
2022-11-05T18:32:34.169Z,13.40
2022-11-05T18:35:01.681Z,12.90
2022-11-05T18:37:28.950Z,15.10
2022-11-05T18:39:56.233Z,12.15
2022-11-05T18:42:23.571Z,16.03
2022-11-05T18:44:50.879Z,11.75
2022-11-05T18:47:18.146Z,14.75
2022-11-05T18:49:46.788Z,13.73
2022-11-05T18:52:14.171Z,13.43
2022-11-05T18:54:41.439Z,15.97
2022-11-05T18:57:08.810Z,14.75
2022-11-05T18:59:38.697Z,14.77
2022-11-05T19:02:08.857Z,15.60
2022-11-05T19:04:36.377Z,13.45
2022-11-05T19:07:06.056Z,17.63
2022-11-05T19:09:34.256Z,15.07
2022-11-05T19:12:02.009Z,17.67
2022-11-05T19:14:30.172Z,15.38
2022-11-05T19:16:58.383Z,18.55
2022-11-05T19:19:26.222Z,16.47
2022-11-05T19:21:53.952Z,16.65
2022-11-05T19:24:22.620Z,18.90
2022-11-05T19:26:50.392Z,18.77
2022-11-05T19:29:18.138Z,18.63
2022-11-05T19:31:46.010Z,20.87
2022-11-05T19:34:14.701Z,22.80
2022-11-05T19:36:42.489Z,32.20
2022-11-05T19:39:15.063Z,37.30
2022-11-05T19:41:43.703Z,25.20
2022-11-05T19:44:11.547Z,23.10
2022-11-05T19:46:38.874Z,23.27
2022-11-05T19:49:06.193Z,22.27
2022-11-05T19:51:33.642Z,23.25
2022-11-05T19:54:02.214Z,22.67
2022-11-05T19:56:31.110Z,22.53
2022-11-05T19:59:00.664Z,18.00
2022-11-05T20:01:29.250Z,18.52
2022-11-05T20:03:58.291Z,20.23
2022-11-05T20:06:29.363Z,19.17
2022-11-05T20:09:20.482Z,23.50
2022-11-05T20:11:48.308Z,19.80
2022-11-05T20:14:17.000Z,28.88
2022-11-05T20:16:46.363Z,25.45
2022-11-05T20:19:16.461Z,20.55
2022-11-05T20:21:44.490Z,25.97
2022-11-05T20:24:16.130Z,27.92
2022-11-05T20:26:45.958Z,23.75
2022-11-05T20:29:13.262Z,26.35
2022-11-05T20:31:41.882Z,24.77
2022-11-05T20:34:09.107Z,21.10
2022-11-05T20:36:36.414Z,17.35
2022-11-05T20:39:05.619Z,22.38
2022-11-05T20:41:33.239Z,17.85
2022-11-05T20:44:00.773Z,21.10
2022-11-05T20:46:28.159Z,22.07
2022-11-05T20:48:56.807Z,18.23
2022-11-05T20:51:25.335Z,17.90
2022-11-05T20:53:55.050Z,17.30
2022-11-05T20:56:24.435Z,20.55
2022-11-05T20:58:52.515Z,15.60
2022-11-05T21:01:20.705Z,15.45
2022-11-05T21:03:48.212Z,16.95
2022-11-05T21:06:17.189Z,19.75
2022-11-05T21:08:47.132Z,15.95
2022-11-05T21:11:14.833Z,12.80
2022-11-05T21:13:42.277Z,18.40
2022-11-05T21:16:12.895Z,18.92
2022-11-05T21:18:44.445Z,17.35
2022-11-05T21:21:14.073Z,15.98
2022-11-05T21:23:43.003Z,19.73
2022-11-05T21:26:13.603Z,20.20
2022-11-05T21:28:41.718Z,22.50
2022-11-05T21:31:09.576Z,18.35
2022-11-05T21:33:36.927Z,21.85
2022-11-05T21:36:08.246Z,22.00
2022-11-05T21:38:35.811Z,23.77
2022-11-05T21:41:05.136Z,19.30
2022-11-05T21:43:32.827Z,20.30
2022-11-05T21:46:01.429Z,21.38
2022-11-05T21:48:28.791Z,15.90
2022-11-05T21:51:14.553Z,15.63
2022-11-05T21:54:00.758Z,15.70
2022-11-05T21:56:48.037Z,15.20
2022-11-05T21:59:36.120Z,13.38
2022-11-05T22:02:03.889Z,15.73
2022-11-05T22:04:32.590Z,17.05
2022-11-05T22:06:59.874Z,16.70
2022-11-05T22:09:27.566Z,15.25
2022-11-05T22:11:56.274Z,13.77
2022-11-05T22:14:24.363Z,13.33
2022-11-05T22:16:51.965Z,12.55
2022-11-05T22:19:20.003Z,17.40
2022-11-05T22:21:47.545Z,19.60
2022-11-05T22:24:15.119Z,19.95
2022-11-05T22:26:43.896Z,20.30
2022-11-05T22:29:12.821Z,18.08
2022-11-05T22:31:40.430Z,19.52
2022-11-05T22:34:09.477Z,19.88
2022-11-05T22:36:36.872Z,20.35
2022-11-05T22:39:05.248Z,16.17
2022-11-05T22:41:32.616Z,18.15
2022-11-05T22:43:59.910Z,13.85
2022-11-05T22:46:28.935Z,13.77
2022-11-05T22:48:56.827Z,13.00
2022-11-05T22:51:25.902Z,15.40
2022-11-05T22:53:54.685Z,16.75
2022-11-05T22:56:24.337Z,12.07
2022-11-05T22:58:52.027Z,13.55
2022-11-05T23:01:20.744Z,11.48
2022-11-05T23:03:51.808Z,13.33
2022-11-05T23:06:39.638Z,10.40
2022-11-05T23:09:31.541Z,13.30
2022-11-05T23:11:59.957Z,10.80
2022-11-05T23:14:27.793Z,12.73
2022-11-05T23:17:13.728Z,14.53
2022-11-05T23:20:01.151Z,13.10
2022-11-05T23:22:48.731Z,12.80
2022-11-05T23:25:17.727Z,11.23
2022-11-05T23:27:47.283Z,13.43
2022-11-05T23:30:17.558Z,9.10
2022-11-05T23:32:45.112Z,11.73
2022-11-05T23:35:14.629Z,10.52
2022-11-05T23:38:01.322Z,12.40
2022-11-05T23:40:30.009Z,10.73
2022-11-05T23:43:16.602Z,10.73
2022-11-05T23:46:03.248Z,10.45
2022-11-05T23:48:34.555Z,8.82
2022-11-05T23:51:05.681Z,10.20
2022-11-05T23:53:34.552Z,13.13
2022-11-05T23:56:03.749Z,9.37
2022-11-05T23:58:31.264Z,11.63
